Time,TemperatureF,DewpointF,PressureIn,WindDirection,WindDirectionDegrees,WindSpeedMPH,WindSpeedGustMPH,Humidity,HourlyPrecipIn,Conditions,Clouds,dailyrainin,SoftwareType,DateUTC
2013-01-22 00:04:00,5.9,-10.9,29.47,NW,315,4.7,4.7,45,0.00,,---,0.00,VWS V14.01,2013-01-22 06:04:00,
2013-01-22 00:09:00,5.9,-10.9,29.47,NNW,338,4.3,6.5,45,0.00,,---,0.00,VWS V14.01,2013-01-22 06:09:00,
2013-01-22 00:14:00,5.9,-10.9,29.47,West,270,3.1,10.1,45,0.00,,---,0.00,VWS V14.01,2013-01-22 06:14:00,
2013-01-22 00:20:00,5.9,-10.9,29.47,West,270,7.6,7.6,45,0.00,,---,0.00,VWS V14.01,2013-01-22 06:20:00,
2013-01-22 00:25:00,5.7,-11.0,29.47,WSW,248,11.2,11.2,45,0.00,,---,0.00,VWS V14.01,2013-01-22 06:25:00,
2013-01-22 00:30:00,6.1,-10.7,29.47,West,270,7.6,7.6,45,0.00,,---,0.00,VWS V14.01,2013-01-22 06:30:00,
2013-01-22 00:35:00,5.7,-11.0,29.47,WSW,248,5.4,7.2,45,0.00,,---,0.00,VWS V14.01,2013-01-22 06:35:00,
2013-01-22 00:40:00,5.9,-10.9,29.47,West,270,3.8,3.8,45,0.00,,---,0.00,VWS V14.01,2013-01-22 06:40:00,
2013-01-22 00:45:00,5.9,-10.9,29.47,West,270,3.8,3.8,45,0.00,,---,0.00,VWS V14.01,2013-01-22 06:45:00,
2013-01-22 00:50:00,5.9,-10.9,29.47,WNW,292,4.3,4.3,45,0.00,,---,0.00,VWS V14.01,2013-01-22 06:50:00,
2013-01-22 00:55:00,5.9,-10.9,29.47,West,270,4.0,4.0,45,0.00,,---,0.00,VWS V14.01,2013-01-22 06:55:00,
2013-01-22 01:00:00,5.7,-11.0,29.47,West,270,7.2,7.2,45,0.00,,---,0.00,VWS V14.01,2013-01-22 07:00:00,
2013-01-22 01:05:00,5.9,-10.9,29.47,West,270,3.8,3.8,45,0.00,,---,0.00,VWS V14.01,2013-01-22 07:05:00,
2013-01-22 01:10:00,5.5,-11.2,29.47,WSW,248,9.0,9.0,45,0.00,,---,0.00,VWS V14.01,2013-01-22 07:10:00,
2013-01-22 01:15:00,5.9,-10.9,29.47,West,270,7.4,7.4,45,0.00,,---,0.00,VWS V14.01,2013-01-22 07:15:00,
2013-01-22 01:20:00,5.9,-10.9,29.47,WNW,292,3.1,3.1,45,0.00,,---,0.00,VWS V14.01,2013-01-22 07:20:00,
2013-01-22 01:25:00,6.1,-10.7,29.47,NNW,338,4.9,4.9,45,0.00,,---,0.00,VWS V14.01,2013-01-22 07:25:00,
2013-01-22 01:30:00,5.9,-10.9,29.47,West,270,3.1,3.1,45,0.00,,---,0.00,VWS V14.01,2013-01-22 07:30:00,
2013-01-22 01:35:00,5.9,-10.9,29.47,WNW,292,2.7,6.0,45,0.00,,---,0.00,VWS V14.01,2013-01-22 07:35:00,
2013-01-22 01:40:00,5.9,-10.9,29.47,West,270,2.9,2.9,45,0.00,,---,0.00,VWS V14.01,2013-01-22 07:40:00,
2013-01-22 01:45:00,5.9,-10.9,29.47,West,270,3.4,4.0,45,0.00,,---,0.00,VWS V14.01,2013-01-22 07:45:00,
2013-01-22 01:51:00,5.9,-10.9,29.47,WSW,248,4.9,4.9,45,0.00,,---,0.00,VWS V14.01,2013-01-22 07:51:00,
2013-01-22 01:56:00,5.5,-11.2,29.47,West,270,2.7,2.7,45,0.00,,---,0.00,VWS V14.01,2013-01-22 07:56:00,
2013-01-22 02:01:00,5.5,-11.2,29.47,West,270,3.6,4.0,45,0.00,,---,0.00,VWS V14.01,2013-01-22 08:01:00,
2013-01-22 02:06:00,5.5,-11.2,29.47,West,270,5.8,5.8,45,0.00,,---,0.00,VWS V14.01,2013-01-22 08:06:00,
2013-01-22 02:11:00,5.4,-11.4,29.47,NW,315,7.4,7.4,45,0.00,,---,0.00,VWS V14.01,2013-01-22 08:11:00,
2013-01-22 02:16:00,5.5,-11.2,29.47,North,0,3.4,5.4,45,0.00,,---,0.00,VWS V14.01,2013-01-22 08:16:00,
2013-01-22 02:21:00,5.7,-11.0,29.47,WNW,292,6.0,6.0,45,0.00,,---,0.00,VWS V14.01,2013-01-22 08:21:00,
2013-01-22 02:26:00,5.5,-11.2,29.47,SW,225,3.8,4.0,45,0.00,,---,0.00,VWS V14.01,2013-01-22 08:26:00,
2013-01-22 02:31:00,5.4,-11.4,29.47,WSW,248,5.4,6.0,45,0.00,,---,0.00,VWS V14.01,2013-01-22 08:31:00,
2013-01-22 02:36:00,5.4,-11.4,29.47,NW,315,4.0,4.0,45,0.00,,---,0.00,VWS V14.01,2013-01-22 08:36:00,
2013-01-22 02:41:00,5.4,-11.4,29.47,WSW,248,3.6,3.6,45,0.00,,---,0.00,VWS V14.01,2013-01-22 08:41:00,
2013-01-22 02:46:00,5.4,-11.4,29.47,WNW,292,8.7,8.7,45,0.00,,---,0.00,VWS V14.01,2013-01-22 08:46:00,
2013-01-22 02:51:00,5.2,-11.5,29.47,West,270,5.4,5.4,45,0.00,,---,0.00,VWS V14.01,2013-01-22 08:51:00,
2013-01-22 02:56:00,5.2,-11.5,29.47,WNW,292,4.0,4.0,45,0.00,,---,0.00,VWS V14.01,2013-01-22 08:56:00,
2013-01-22 03:01:00,5.5,-11.2,29.50,West,270,3.6,3.6,45,0.00,,---,0.00,VWS V14.01,2013-01-22 09:01:00,
2013-01-22 03:06:00,5.4,-11.4,29.50,West,270,6.0,6.0,45,0.00,,---,0.00,VWS V14.01,2013-01-22 09:06:00,
2013-01-22 03:12:00,5.4,-11.4,29.50,West,270,6.0,6.0,45,0.00,,---,0.00,VWS V14.01,2013-01-22 09:12:00,
2013-01-22 03:17:00,5.4,-11.4,29.50,West,270,9.2,9.2,45,0.00,,---,0.00,VWS V14.01,2013-01-22 09:17:00,
2013-01-22 03:22:00,5.5,-11.2,29.50,West,270,2.9,2.9,45,0.00,,---,0.00,VWS V14.01,2013-01-22 09:22:00,
2013-01-22 03:27:00,5.5,-11.2,29.50,NW,315,7.6,7.6,45,0.00,,---,0.00,VWS V14.01,2013-01-22 09:27:00,
2013-01-22 03:32:00,5.5,-11.2,29.47,NNW,338,4.0,4.0,45,0.00,,---,0.00,VWS V14.01,2013-01-22 09:32:00,
2013-01-22 03:37:00,5.9,-10.9,29.47,NW,315,4.3,4.9,45,0.00,,---,0.00,VWS V14.01,2013-01-22 09:37:00,
2013-01-22 03:42:00,5.5,-11.2,29.47,West,270,2.7,2.7,45,0.00,,---,0.00,VWS V14.01,2013-01-22 09:42:00,
2013-01-22 03:47:00,5.4,-11.4,29.47,WSW,248,5.4,9.6,45,0.00,,---,0.00,VWS V14.01,2013-01-22 09:47:00,
2013-01-22 03:52:00,5.4,-11.4,29.47,NW,315,6.0,6.0,45,0.00,,---,0.00,VWS V14.01,2013-01-22 09:52:00,
2013-01-22 03:57:00,5.4,-11.4,29.47,West,270,2.7,3.4,45,0.00,,---,0.00,VWS V14.01,2013-01-22 09:57:00,
2013-01-22 04:02:00,5.5,-11.2,29.47,West,270,2.9,2.9,45,0.00,,---,0.00,VWS V14.01,2013-01-22 10:02:00,
2013-01-22 04:07:00,5.4,-11.4,29.47,SW,225,7.8,7.8,45,0.00,,---,0.00,VWS V14.01,2013-01-22 10:07:00,
2013-01-22 04:12:00,5.2,-11.5,29.47,NW,315,2.9,2.9,45,0.00,,---,0.00,VWS V14.01,2013-01-22 10:12:00,
2013-01-22 04:17:00,5.4,-11.4,29.50,WNW,292,3.8,3.8,45,0.00,,---,0.00,VWS V14.01,2013-01-22 10:17:00,
2013-01-22 04:22:00,5.4,-11.4,29.50,North,0,7.2,7.2,45,0.00,,---,0.00,VWS V14.01,2013-01-22 10:22:00,
2013-01-22 04:27:00,5.4,-11.4,29.50,North,0,4.9,4.9,45,0.00,,---,0.00,VWS V14.01,2013-01-22 10:27:00,
2013-01-22 04:32:00,5.4,-11.4,29.50,NW,315,4.3,7.2,45,0.00,,---,0.00,VWS V14.01,2013-01-22 10:32:00,
2013-01-22 04:37:00,5.4,-11.4,29.50,West,270,5.8,5.8,45,0.00,,---,0.00,VWS V14.01,2013-01-22 10:37:00,
2013-01-22 04:43:00,5.0,-11.7,29.50,WNW,292,8.1,8.1,45,0.00,,---,0.00,VWS V14.01,2013-01-22 10:43:00,
2013-01-22 04:48:00,5.0,-11.7,29.50,West,270,5.6,5.6,45,0.00,,---,0.00,VWS V14.01,2013-01-22 10:48:00,
2013-01-22 04:53:00,5.0,-11.7,29.50,West,270,3.1,3.1,45,0.00,,---,0.00,VWS V14.01,2013-01-22 10:53:00,
2013-01-22 04:58:00,4.8,-11.9,29.50,West,270,3.4,3.4,45,0.00,,---,0.00,VWS V14.01,2013-01-22 10:58:00,
2013-01-22 05:03:00,5.0,-11.7,29.50,NW,315,3.4,3.8,45,0.00,,---,0.00,VWS V14.01,2013-01-22 11:03:00,
2013-01-22 05:08:00,5.0,-11.7,29.50,North,0,5.8,5.8,45,0.00,,---,0.00,VWS V14.01,2013-01-22 11:08:00,
2013-01-22 05:13:00,4.8,-11.9,29.50,WNW,292,5.4,5.4,45,0.00,,---,0.00,VWS V14.01,2013-01-22 11:13:00,
2013-01-22 05:18:00,4.6,-12.0,29.50,WSW,248,7.2,7.2,45,0.00,,---,0.00,VWS V14.01,2013-01-22 11:18:00,
2013-01-22 05:23:00,4.8,-11.9,29.50,SW,225,4.3,4.3,45,0.00,,---,0.00,VWS V14.01,2013-01-22 11:23:00,
2013-01-22 05:28:00,5.0,-11.7,29.50,West,270,4.7,4.7,45,0.00,,---,0.00,VWS V14.01,2013-01-22 11:28:00,
2013-01-22 05:33:00,4.5,-12.2,29.50,West,270,4.0,4.0,45,0.00,,---,0.00,VWS V14.01,2013-01-22 11:33:00,
2013-01-22 05:38:00,5.0,-11.7,29.50,WNW,292,4.0,4.0,45,0.00,,---,0.00,VWS V14.01,2013-01-22 11:38:00,
2013-01-22 05:43:00,4.5,-12.2,29.50,West,270,4.0,4.0,45,0.00,,---,0.00,VWS V14.01,2013-01-22 11:43:00,
2013-01-22 05:48:00,4.5,-12.2,29.50,West,270,2.9,5.6,45,0.00,,---,0.00,VWS V14.01,2013-01-22 11:48:00,
2013-01-22 05:53:00,4.5,-12.2,29.50,North,0,4.0,4.0,45,0.00,,---,0.00,VWS V14.01,2013-01-22 11:53:00,
2013-01-22 05:59:00,4.5,-12.2,29.50,NNW,338,3.8,3.8,45,0.00,,---,0.00,VWS V14.01,2013-01-22 11:59:00,
2013-01-22 06:04:00,4.5,-12.2,29.50,WNW,292,2.9,2.9,45,0.00,,---,0.00,VWS V14.01,2013-01-22 12:04:00,
2013-01-22 06:09:00,4.6,-12.0,29.50,NW,315,3.6,3.6,45,0.00,,---,0.00,VWS V14.01,2013-01-22 12:09:00,
2013-01-22 06:14:00,5.0,-11.7,29.50,North,0,3.4,3.4,45,0.00,,---,0.00,VWS V14.01,2013-01-22 12:14:00,
2013-01-22 06:19:00,4.8,-11.9,29.50,WNW,292,7.6,7.6,45,0.00,,---,0.00,VWS V14.01,2013-01-22 12:19:00,
2013-01-22 06:24:00,4.6,-12.0,29.50,West,270,3.4,3.4,45,0.00,,---,0.00,VWS V14.01,2013-01-22 12:24:00,
2013-01-22 06:29:00,4.5,-12.2,29.50,WNW,292,9.8,9.8,45,0.00,,---,0.00,VWS V14.01,2013-01-22 12:29:00,
2013-01-22 06:34:00,4.5,-12.2,29.50,WNW,292,2.5,2.5,45,0.00,,---,0.00,VWS V14.01,2013-01-22 12:34:00,
2013-01-22 06:39:00,4.5,-12.2,29.50,WNW,292,3.8,4.3,45,0.00,,---,0.00,VWS V14.01,2013-01-22 12:39:00,
2013-01-22 06:44:00,4.5,-12.2,29.50,West,270,2.5,2.5,45,0.00,,---,0.00,VWS V14.01,2013-01-22 12:44:00,
2013-01-22 06:49:00,4.5,-12.2,29.53,WNW,292,0.0,2.7,45,0.00,,---,0.00,VWS V14.01,2013-01-22 12:49:00,
2013-01-22 06:54:00,4.1,-12.5,29.53,WNW,292,5.4,5.4,45,0.00,,---,0.00,VWS V14.01,2013-01-22 12:54:00,
2013-01-22 06:59:00,4.1,-12.5,29.53,West,270,2.9,2.9,45,0.00,,---,0.00,VWS V14.01,2013-01-22 12:59:00,
2013-01-22 07:04:00,4.3,-12.4,29.53,West,270,2.9,2.9,45,0.00,,---,0.00,VWS V14.01,2013-01-22 13:04:00,
2013-01-22 07:09:00,3.9,-12.7,29.53,West,270,2.0,2.5,45,0.00,,---,0.00,VWS V14.01,2013-01-22 13:09:00,
2013-01-22 07:14:00,4.1,-12.5,29.53,NNW,338,4.0,4.0,45,0.00,,---,0.00,VWS V14.01,2013-01-22 13:14:00,
2013-01-22 07:19:00,4.1,-12.5,29.53,West,270,4.3,4.3,45,0.00,,---,0.00,VWS V14.01,2013-01-22 13:19:00,
2013-01-22 07:24:00,4.5,-12.2,29.53,NNW,338,3.1,3.8,45,0.00,,---,0.00,VWS V14.01,2013-01-22 13:24:00,
2013-01-22 07:29:00,4.5,-12.2,29.53,WSW,248,4.3,4.3,45,0.00,,---,0.00,VWS V14.01,2013-01-22 13:29:00,
2013-01-22 07:35:00,4.3,-12.4,29.53,West,270,3.1,3.1,45,0.00,,---,0.00,VWS V14.01,2013-01-22 13:35:00,
2013-01-22 07:40:00,4.5,-12.2,29.53,NW,315,5.4,5.4,45,0.00,,---,0.00,VWS V14.01,2013-01-22 13:40:00,
2013-01-22 07:45:00,4.5,-12.2,29.53,WSW,248,2.9,4.0,45,0.00,,---,0.00,VWS V14.01,2013-01-22 13:45:00,
2013-01-22 07:50:00,4.5,-12.2,29.53,NW,315,4.3,4.3,45,0.00,,---,0.00,VWS V14.01,2013-01-22 13:50:00,
2013-01-22 07:55:00,4.5,-12.2,29.53,NNW,338,4.3,4.3,45,0.00,,---,0.00,VWS V14.01,2013-01-22 13:55:00,
2013-01-22 08:00:00,4.8,-11.9,29.53,West,270,6.0,6.0,45,0.00,,---,0.00,VWS V14.01,2013-01-22 14:00:00,
2013-01-22 08:05:00,5.0,-11.7,29.53,WNW,292,7.6,7.6,45,0.00,,---,0.00,VWS V14.01,2013-01-22 14:05:00,
2013-01-22 08:10:00,5.2,-11.5,29.53,NNW,338,3.8,3.8,45,0.00,,---,0.00,VWS V14.01,2013-01-22 14:10:00,
2013-01-22 08:15:00,5.4,-11.4,29.53,WNW,292,4.0,4.7,45,0.00,,---,0.00,VWS V14.01,2013-01-22 14:15:00,
2013-01-22 08:20:00,5.4,-11.4,29.53,NW,315,4.3,5.6,45,0.00,,---,0.00,VWS V14.01,2013-01-22 14:20:00,
2013-01-22 08:25:00,5.5,-11.2,29.53,NNW,338,3.6,7.6,45,0.00,,---,0.00,VWS V14.01,2013-01-22 14:25:00,
2013-01-22 08:30:00,5.4,-11.4,29.53,NNW,338,3.6,3.6,45,0.00,,---,0.00,VWS V14.01,2013-01-22 14:30:00,
2013-01-22 08:35:00,5.0,-11.7,29.53,NNW,338,3.4,4.3,45,0.00,,---,0.00,VWS V14.01,2013-01-22 14:35:00,
2013-01-22 08:40:00,5.4,-11.4,29.53,NW,315,5.8,5.8,45,0.00,,---,0.00,VWS V14.01,2013-01-22 14:40:00,
2013-01-22 08:45:00,5.5,-11.2,29.56,NNE,22,5.6,5.6,45,0.00,,---,0.00,VWS V14.01,2013-01-22 14:45:00,
2013-01-22 08:50:00,5.5,-11.2,29.56,West,270,2.5,2.5,45,0.00,,---,0.00,VWS V14.01,2013-01-22 14:50:00,
2013-01-22 08:55:00,5.9,-10.9,29.56,NW,315,3.6,3.6,45,0.00,,---,0.00,VWS V14.01,2013-01-22 14:55:00,
2013-01-22 09:00:00,6.1,-10.7,29.56,NNW,338,3.6,3.6,45,0.00,,---,0.00,VWS V14.01,2013-01-22 15:00:00,
2013-01-22 09:05:00,6.4,-10.4,29.56,NW,315,3.6,3.6,45,0.00,,---,0.00,VWS V14.01,2013-01-22 15:05:00,
2013-01-22 09:10:00,6.4,-10.4,29.56,West,270,8.1,8.1,45,0.00,,---,0.00,VWS V14.01,2013-01-22 15:10:00,
2013-01-22 09:15:00,6.4,-10.4,29.56,North,0,4.7,4.7,45,0.00,,---,0.00,VWS V14.01,2013-01-22 15:15:00,
2013-01-22 09:20:00,6.4,-10.4,29.56,NNW,338,2.5,3.6,45,0.00,,---,0.00,VWS V14.01,2013-01-22 15:20:00,
2013-01-22 09:25:00,6.8,-10.0,29.56,NNW,338,3.6,3.6,45,0.00,,---,0.00,VWS V14.01,2013-01-22 15:25:00,
2013-01-22 09:31:00,6.8,-10.0,29.56,North,0,4.0,4.0,45,0.00,,---,0.00,VWS V14.01,2013-01-22 15:31:00,
2013-01-22 09:36:00,7.2,-9.7,29.56,West,270,3.6,3.6,45,0.00,,---,0.00,VWS V14.01,2013-01-22 15:36:00,
2013-01-22 09:41:00,7.5,-9.4,29.56,West,270,4.0,5.8,45,0.00,,---,0.00,VWS V14.01,2013-01-22 15:41:00,
2013-01-22 09:46:00,8.1,-8.9,29.56,NNW,338,3.6,3.6,45,0.00,,---,0.00,VWS V14.01,2013-01-22 15:46:00,
2013-01-22 09:51:00,8.2,-8.7,29.56,NW,315,2.5,2.5,45,0.00,,---,0.00,VWS V14.01,2013-01-22 15:51:00,
2013-01-22 09:56:00,8.1,-8.9,29.56,NNE,22,2.7,6.0,45,0.00,,---,0.00,VWS V14.01,2013-01-22 15:56:00,
2013-01-22 10:01:00,8.6,-8.4,29.56,West,270,6.7,6.7,45,0.00,,---,0.00,VWS V14.01,2013-01-22 16:01:00,
2013-01-22 10:06:00,8.8,-8.2,29.56,SW,225,5.4,5.4,45,0.00,,---,0.00,VWS V14.01,2013-01-22 16:06:00,
2013-01-22 10:11:00,9.1,-7.9,29.56,WSW,248,4.3,5.6,45,0.00,,---,0.00,VWS V14.01,2013-01-22 16:11:00,
2013-01-22 10:16:00,9.7,-7.4,29.56,West,270,6.0,6.0,45,0.00,,---,0.00,VWS V14.01,2013-01-22 16:16:00,
2013-01-22 10:22:00,9.7,-7.4,29.56,West,270,5.6,5.6,45,0.00,,---,0.00,VWS V14.01,2013-01-22 16:22:00,
2013-01-22 10:27:00,9.5,-7.6,29.56,SW,225,5.4,5.4,45,0.00,,---,0.00,VWS V14.01,2013-01-22 16:27:00,
2013-01-22 10:32:00,9.7,-7.4,29.56,West,270,3.8,4.0,45,0.00,,---,0.00,VWS V14.01,2013-01-22 16:32:00,
2013-01-22 10:37:00,10.4,-6.7,29.56,WSW,248,5.4,5.8,45,0.00,,---,0.00,VWS V14.01,2013-01-22 16:37:00,
2013-01-22 10:42:00,10.4,-6.7,29.56,WNW,292,6.3,7.4,45,0.00,,---,0.00,VWS V14.01,2013-01-22 16:42:00,
2013-01-22 10:47:00,10.9,-6.2,29.56,WSW,248,5.4,5.4,45,0.00,,---,0.00,VWS V14.01,2013-01-22 16:47:00,
2013-01-22 10:52:00,11.1,-6.1,29.56,NNW,338,6.0,6.0,45,0.00,,---,0.00,VWS V14.01,2013-01-22 16:52:00,
2013-01-22 10:57:00,11.1,-6.1,29.56,SW,225,6.3,7.6,45,0.00,,---,0.00,VWS V14.01,2013-01-22 16:57:00,
2013-01-22 11:02:00,11.3,-5.9,29.56,WSW,248,6.5,6.5,45,0.00,,---,0.00,VWS V14.01,2013-01-22 17:02:00,
2013-01-22 11:07:00,11.7,-5.6,29.56,WNW,292,3.6,4.7,45,0.00,,---,0.00,VWS V14.01,2013-01-22 17:07:00,
2013-01-22 11:12:00,12.2,-5.1,29.56,SW,225,2.0,3.4,45,0.00,,---,0.00,VWS V14.01,2013-01-22 17:12:00,
2013-01-22 11:17:00,12.2,-5.1,29.56,WNW,292,3.4,3.4,45,0.00,,---,0.00,VWS V14.01,2013-01-22 17:17:00,
2013-01-22 11:22:00,12.0,-5.2,29.56,West,270,4.7,6.0,45,0.00,,---,0.00,VWS V14.01,2013-01-22 17:22:00,
2013-01-22 11:27:00,12.0,-5.2,29.56,NNW,338,4.3,6.3,45,0.00,,---,0.00,VWS V14.01,2013-01-22 17:27:00,
2013-01-22 11:32:00,12.4,-4.9,29.56,NW,315,5.6,6.3,45,0.00,,---,0.00,VWS V14.01,2013-01-22 17:32:00,
2013-01-22 11:37:00,12.6,-4.7,29.56,West,270,9.6,9.6,45,0.00,,---,0.00,VWS V14.01,2013-01-22 17:37:00,
2013-01-22 11:42:00,12.7,-4.6,29.56,SW,225,5.6,5.6,45,0.00,,---,0.00,VWS V14.01,2013-01-22 17:42:00,
2013-01-22 11:47:00,12.6,-4.7,29.56,SW,225,6.0,6.0,45,0.00,,---,0.00,VWS V14.01,2013-01-22 17:47:00,
2013-01-22 11:52:00,12.9,-4.4,29.56,NW,315,4.0,4.0,45,0.00,,---,0.00,VWS V14.01,2013-01-22 17:52:00,
2013-01-22 11:58:00,13.3,-4.1,29.56,West,270,5.4,5.4,45,0.00,,---,0.00,VWS V14.01,2013-01-22 17:58:00,
2013-01-22 12:03:00,13.6,-3.8,29.53,West,270,6.5,6.5,45,0.00,,---,0.00,VWS V14.01,2013-01-22 18:03:00,
2013-01-22 12:08:00,13.3,-4.1,29.53,West,270,8.1,8.1,45,0.00,,---,0.00,VWS V14.01,2013-01-22 18:08:00,
2013-01-22 12:13:00,13.3,-4.1,29.53,West,270,6.0,6.0,45,0.00,,---,0.00,VWS V14.01,2013-01-22 18:13:00,
2013-01-22 12:18:00,13.5,-3.9,29.53,WNW,292,3.8,3.8,45,0.00,,---,0.00,VWS V14.01,2013-01-22 18:18:00,
2013-01-22 12:23:00,13.8,-3.6,29.53,WSW,248,5.8,5.8,45,0.00,,---,0.00,VWS V14.01,2013-01-22 18:23:00,
2013-01-22 12:28:00,14.0,-1.6,29.53,WNW,292,6.3,6.3,49,0.00,,---,0.00,VWS V14.01,2013-01-22 18:28:00,
2013-01-22 12:33:00,14.0,-2.1,29.53,West,270,4.3,4.3,48,0.00,,---,0.00,VWS V14.01,2013-01-22 18:33:00,
2013-01-22 12:38:00,14.0,-2.1,29.53,WSW,248,5.4,5.4,48,0.00,,---,0.00,VWS V14.01,2013-01-22 18:38:00,
2013-01-22 12:43:00,14.2,-1.9,29.53,WNW,292,2.7,2.7,48,0.00,,---,0.00,VWS V14.01,2013-01-22 18:43:00,
2013-01-22 12:48:00,14.7,-1.4,29.53,WSW,248,7.4,7.4,48,0.00,,---,0.00,VWS V14.01,2013-01-22 18:48:00,
2013-01-22 12:53:00,14.4,-1.7,29.53,West,270,4.9,4.9,48,0.00,,---,0.00,VWS V14.01,2013-01-22 18:53:00,
2013-01-22 12:58:00,14.4,-1.7,29.53,NW,315,4.3,4.3,48,0.00,,---,0.00,VWS V14.01,2013-01-22 18:58:00,
2013-01-22 13:03:00,14.9,-1.2,29.53,West,270,5.8,5.8,48,0.00,,---,0.00,VWS V14.01,2013-01-22 19:03:00,
2013-01-22 13:08:00,14.9,-1.7,29.53,SW,225,5.6,6.9,47,0.00,,---,0.00,VWS V14.01,2013-01-22 19:08:00,
2013-01-22 13:13:00,15.1,-1.1,29.53,WNW,292,5.4,5.4,48,0.00,,---,0.00,VWS V14.01,2013-01-22 19:13:00,
2013-01-22 13:18:00,15.1,-1.5,29.50,SW,225,4.5,4.5,47,0.00,,---,0.00,VWS V14.01,2013-01-22 19:18:00,
2013-01-22 13:23:00,15.1,-1.1,29.50,WNW,292,3.4,3.8,48,0.00,,---,0.00,VWS V14.01,2013-01-22 19:23:00,
2013-01-22 13:28:00,15.4,-0.7,29.50,SW,225,5.6,5.6,48,0.00,,---,0.00,VWS V14.01,2013-01-22 19:28:00,
2013-01-22 13:33:00,15.3,-1.3,29.50,West,270,6.3,6.3,47,0.00,,---,0.00,VWS V14.01,2013-01-22 19:33:00,
2013-01-22 13:38:00,15.3,-1.3,29.50,West,270,5.6,9.2,47,0.00,,---,0.00,VWS V14.01,2013-01-22 19:38:00,
2013-01-22 13:43:00,15.4,-1.2,29.50,NNW,338,4.9,4.9,47,0.00,,---,0.00,VWS V14.01,2013-01-22 19:43:00,
2013-01-22 13:48:00,15.6,-1.0,29.50,West,270,2.5,5.8,47,0.00,,---,0.00,VWS V14.01,2013-01-22 19:48:00,
2013-01-22 13:53:00,15.8,-0.9,29.50,WSW,248,4.0,4.0,47,0.00,,---,0.00,VWS V14.01,2013-01-22 19:53:00,
2013-01-22 13:58:00,15.4,-1.6,29.50,WSW,248,4.0,4.0,46,0.00,,---,0.00,VWS V14.01,2013-01-22 19:58:00,
2013-01-22 14:03:00,15.8,-0.9,29.50,West,270,6.5,6.5,47,0.00,,---,0.00,VWS V14.01,2013-01-22 20:03:00,
2013-01-22 14:09:00,16.0,-1.1,29.50,West,270,2.9,7.8,46,0.00,,---,0.00,VWS V14.01,2013-01-22 20:09:00,
2013-01-22 14:14:00,16.2,-1.0,29.50,WSW,248,6.0,8.1,46,0.00,,---,0.00,VWS V14.01,2013-01-22 20:14:00,
2013-01-22 14:19:00,16.2,-1.0,29.50,West,270,4.3,4.9,46,0.00,,---,0.00,VWS V14.01,2013-01-22 20:19:00,
2013-01-22 14:24:00,16.3,-0.8,29.50,West,270,4.3,4.3,46,0.00,,---,0.00,VWS V14.01,2013-01-22 20:24:00,
2013-01-22 14:29:00,16.7,-0.5,29.50,West,270,5.6,5.6,46,0.00,,---,0.00,VWS V14.01,2013-01-22 20:29:00,
2013-01-22 14:34:00,16.9,-0.3,29.50,SW,225,5.6,5.6,46,0.00,,---,0.00,VWS V14.01,2013-01-22 20:34:00,
2013-01-22 14:39:00,16.9,-0.3,29.50,WSW,248,5.4,5.4,46,0.00,,---,0.00,VWS V14.01,2013-01-22 20:39:00,
2013-01-22 14:44:00,16.9,-0.3,29.50,West,270,3.8,3.8,46,0.00,,---,0.00,VWS V14.01,2013-01-22 20:44:00,
2013-01-22 14:49:00,17.1,-0.1,29.50,WSW,248,4.9,4.9,46,0.00,,---,0.00,VWS V14.01,2013-01-22 20:49:00,
2013-01-22 14:54:00,17.2,0.0,29.50,West,270,4.0,4.0,46,0.00,,---,0.00,VWS V14.01,2013-01-22 20:54:00,
2013-01-22 14:59:00,17.1,-0.1,29.50,NW,315,2.9,2.9,46,0.00,,---,0.00,VWS V14.01,2013-01-22 20:59:00,
2013-01-22 15:04:00,16.9,-0.8,29.50,North,0,3.1,3.1,45,0.00,,---,0.00,VWS V14.01,2013-01-22 21:04:00,
2013-01-22 15:09:00,17.1,-0.1,29.50,WNW,292,5.4,5.4,46,0.00,,---,0.00,VWS V14.01,2013-01-22 21:09:00,
2013-01-22 15:14:00,17.1,-0.1,29.50,WNW,292,2.9,3.6,46,0.00,,---,0.00,VWS V14.01,2013-01-22 21:14:00,
2013-01-22 15:19:00,16.9,-0.3,29.50,West,270,8.5,8.5,46,0.00,,---,0.00,VWS V14.01,2013-01-22 21:19:00,
2013-01-22 15:24:00,16.7,-0.5,29.50,SSW,202,5.8,5.8,46,0.00,,---,0.00,VWS V14.01,2013-01-22 21:24:00,
2013-01-22 15:29:00,16.7,-0.5,29.50,West,270,6.5,6.5,46,0.00,,---,0.00,VWS V14.01,2013-01-22 21:29:00,
2013-01-22 15:31:00,16.7,-0.5,29.50,WNW,292,3.6,3.6,46,0.00,,---,0.00,VWS V14.01,2013-01-22 21:31:00,
2013-01-22 15:37:00,16.7,-0.5,29.50,West,270,3.6,8.7,46,0.00,,---,0.00,VWS V14.01,2013-01-22 21:37:00,
2013-01-22 15:42:00,16.7,-0.5,29.50,SW,225,2.5,4.3,46,0.00,,---,0.00,VWS V14.01,2013-01-22 21:42:00,
2013-01-22 15:47:00,16.5,-0.6,29.50,SW,225,4.9,4.9,46,0.00,,---,0.00,VWS V14.01,2013-01-22 21:47:00,
2013-01-22 15:52:00,16.2,-1.0,29.50,WSW,248,2.0,6.0,46,0.00,,---,0.00,VWS V14.01,2013-01-22 21:52:00,
2013-01-22 15:57:00,16.2,-1.0,29.50,West,270,5.4,5.4,46,0.00,,---,0.00,VWS V14.01,2013-01-22 21:57:00,
2013-01-22 16:02:00,16.2,-1.0,29.50,WSW,248,3.1,3.1,46,0.00,,---,0.00,VWS V14.01,2013-01-22 22:02:00,
2013-01-22 16:07:00,16.5,-0.6,29.50,SW,225,2.7,3.1,46,0.00,,---,0.00,VWS V14.01,2013-01-22 22:07:00,
2013-01-22 16:12:00,16.2,-1.0,29.50,West,270,3.6,5.6,46,0.00,,---,0.00,VWS V14.01,2013-01-22 22:12:00,
2013-01-22 16:17:00,16.2,-1.0,29.47,West,270,3.8,3.8,46,0.00,,---,0.00,VWS V14.01,2013-01-22 22:17:00,
2013-01-22 16:22:00,16.2,-1.0,29.47,WNW,292,4.0,4.9,46,0.00,,---,0.00,VWS V14.01,2013-01-22 22:22:00,
2013-01-22 16:27:00,16.0,-1.1,29.47,WSW,248,3.6,3.6,46,0.00,,---,0.00,VWS V14.01,2013-01-22 22:27:00,
2013-01-22 16:33:00,16.0,-1.1,29.50,West,270,6.5,6.5,46,0.00,,---,0.00,VWS V14.01,2013-01-22 22:33:00,
2013-01-22 16:38:00,16.0,-1.1,29.50,West,270,6.0,6.0,46,0.00,,---,0.00,VWS V14.01,2013-01-22 22:38:00,
2013-01-22 16:43:00,16.2,-1.0,29.50,West,270,5.4,5.4,46,0.00,,---,0.00,VWS V14.01,2013-01-22 22:43:00,
2013-01-22 16:48:00,16.0,-1.1,29.50,WNW,292,5.8,5.8,46,0.00,,---,0.00,VWS V14.01,2013-01-22 22:48:00,
2013-01-22 16:53:00,16.0,-1.1,29.50,WNW,292,3.1,3.1,46,0.00,,---,0.00,VWS V14.01,2013-01-22 22:53:00,
2013-01-22 16:58:00,15.8,-1.3,29.50,WSW,248,4.3,4.3,46,0.00,,---,0.00,VWS V14.01,2013-01-22 22:58:00,
2013-01-22 17:03:00,15.8,-1.3,29.50,WSW,248,3.1,3.6,46,0.00,,---,0.00,VWS V14.01,2013-01-22 23:03:00,
2013-01-22 17:08:00,15.6,-1.5,29.50,WNW,292,6.0,6.0,46,0.00,,---,0.00,VWS V14.01,2013-01-22 23:08:00,
2013-01-22 17:13:00,15.6,-1.5,29.50,West,270,4.3,5.4,46,0.00,,---,0.00,VWS V14.01,2013-01-22 23:13:00,
2013-01-22 17:18:00,16.0,-1.1,29.50,West,270,3.8,3.8,46,0.00,,---,0.00,VWS V14.01,2013-01-22 23:18:00,
2013-01-22 17:23:00,15.8,-1.3,29.50,WSW,248,2.7,2.7,46,0.00,,---,0.00,VWS V14.01,2013-01-22 23:23:00,
2013-01-22 17:28:00,15.8,-1.3,29.50,West,270,5.6,5.6,46,0.00,,---,0.00,VWS V14.01,2013-01-22 23:28:00,
2013-01-22 17:33:00,15.8,-1.3,29.50,West,270,4.3,4.3,46,0.00,,---,0.00,VWS V14.01,2013-01-22 23:33:00,
2013-01-22 17:39:00,16.0,-1.1,29.50,NNW,338,2.7,2.7,46,0.00,,---,0.00,VWS V14.01,2013-01-22 23:39:00,
2013-01-22 17:44:00,16.0,-1.1,29.50,West,270,4.3,4.3,46,0.00,,---,0.00,VWS V14.01,2013-01-22 23:44:00,
2013-01-22 17:49:00,15.8,-1.3,29.50,NNW,338,1.6,2.9,46,0.00,,---,0.00,VWS V14.01,2013-01-22 23:49:00,
2013-01-22 17:54:00,15.8,-1.3,29.50,WNW,292,4.3,4.3,46,0.00,,---,0.00,VWS V14.01,2013-01-22 23:54:00,
2013-01-22 17:59:00,15.6,-1.5,29.50,WNW,292,4.7,6.3,46,0.00,,---,0.00,VWS V14.01,2013-01-22 23:59:00,
2013-01-22 18:04:00,15.4,-1.6,29.50,West,270,5.8,5.8,46,0.00,,---,0.00,VWS V14.01,2013-01-23 00:04:00,
2013-01-22 18:09:00,15.6,-1.5,29.50,WSW,248,3.4,3.4,46,0.00,,---,0.00,VWS V14.01,2013-01-23 00:09:00,
2013-01-22 18:14:00,15.8,-1.3,29.50,NW,315,2.9,2.9,46,0.00,,---,0.00,VWS V14.01,2013-01-23 00:14:00,
2013-01-22 18:19:00,15.8,-1.3,29.50,WSW,248,3.8,5.4,46,0.00,,---,0.00,VWS V14.01,2013-01-23 00:19:00,
2013-01-22 18:24:00,15.8,-1.3,29.50,West,270,2.9,3.4,46,0.00,,---,0.00,VWS V14.01,2013-01-23 00:24:00,
2013-01-22 18:29:00,16.0,-1.1,29.50,West,270,2.0,2.2,46,0.00,,---,0.00,VWS V14.01,2013-01-23 00:29:00,
2013-01-22 18:34:00,15.8,-1.3,29.50,West,270,2.5,2.5,46,0.00,,---,0.00,VWS V14.01,2013-01-23 00:34:00,
2013-01-22 18:39:00,15.4,-1.6,29.50,North,0,2.7,2.7,46,0.00,,---,0.00,VWS V14.01,2013-01-23 00:39:00,
2013-01-22 18:44:00,15.6,-1.5,29.47,West,270,3.6,4.3,46,0.00,,---,0.00,VWS V14.01,2013-01-23 00:44:00,
2013-01-22 18:49:00,15.6,-1.5,29.47,WNW,292,2.7,2.7,46,0.00,,---,0.00,VWS V14.01,2013-01-23 00:49:00,
2013-01-22 18:55:00,15.6,-1.5,29.47,West,270,2.7,2.9,46,0.00,,---,0.00,VWS V14.01,2013-01-23 00:55:00,
2013-01-22 19:00:00,15.4,-1.6,29.47,West,270,4.0,4.0,46,0.00,,---,0.00,VWS V14.01,2013-01-23 01:00:00,
2013-01-22 19:05:00,15.6,-1.5,29.47,WSW,248,1.1,2.7,46,0.00,,---,0.00,VWS V14.01,2013-01-23 01:05:00,
2013-01-22 19:10:00,15.6,-1.0,29.47,West,270,5.6,5.6,47,0.00,,---,0.00,VWS V14.01,2013-01-23 01:10:00,
2013-01-22 19:15:00,15.4,-1.6,29.50,West,270,2.9,3.8,46,0.00,,---,0.00,VWS V14.01,2013-01-23 01:15:00,
2013-01-22 19:20:00,15.4,-1.6,29.50,WSW,248,5.6,5.6,46,0.00,,---,0.00,VWS V14.01,2013-01-23 01:20:00,
2013-01-22 19:25:00,15.4,-1.6,29.50,West,270,1.3,1.3,46,0.00,,---,0.00,VWS V14.01,2013-01-23 01:25:00,
2013-01-22 19:30:00,15.4,-1.2,29.47,West,270,3.1,4.3,47,0.00,,---,0.00,VWS V14.01,2013-01-23 01:30:00,
2013-01-22 19:35:00,15.6,-1.0,29.47,WNW,292,2.9,2.9,47,0.00,,---,0.00,VWS V14.01,2013-01-23 01:35:00,
2013-01-22 19:40:00,15.6,-1.0,29.47,NW,315,2.7,2.7,47,0.00,,---,0.00,VWS V14.01,2013-01-23 01:40:00,
2013-01-22 19:45:00,15.8,-0.9,29.47,WSW,248,5.4,5.4,47,0.00,,---,0.00,VWS V14.01,2013-01-23 01:45:00,
2013-01-22 19:50:00,15.6,-1.0,29.47,West,270,2.5,3.8,47,0.00,,---,0.00,VWS V14.01,2013-01-23 01:50:00,
2013-01-22 19:55:00,15.4,-1.2,29.47,West,270,5.8,5.8,47,0.00,,---,0.00,VWS V14.01,2013-01-23 01:55:00,
2013-01-22 20:00:00,15.6,-1.0,29.47,West,270,2.7,2.7,47,0.00,,---,0.00,VWS V14.01,2013-01-23 02:00:00,
2013-01-22 20:05:00,15.6,-1.0,29.47,West,270,4.3,4.3,47,0.00,,---,0.00,VWS V14.01,2013-01-23 02:05:00,
2013-01-22 20:11:00,15.6,-1.0,29.47,West,270,4.3,4.3,47,0.00,,---,0.00,VWS V14.01,2013-01-23 02:11:00,
2013-01-22 20:16:00,15.8,-0.9,29.50,WSW,248,3.6,3.6,47,0.00,,---,0.00,VWS V14.01,2013-01-23 02:16:00,
2013-01-22 20:21:00,15.8,-0.9,29.50,WSW,248,3.8,3.8,47,0.00,,---,0.00,VWS V14.01,2013-01-23 02:21:00,
2013-01-22 20:26:00,15.4,-1.2,29.50,WSW,248,2.2,2.2,47,0.00,,---,0.00,VWS V14.01,2013-01-23 02:26:00,
2013-01-22 20:31:00,15.6,-1.0,29.47,West,270,2.5,2.9,47,0.00,,---,0.00,VWS V14.01,2013-01-23 02:31:00,
2013-01-22 20:36:00,15.8,-0.9,29.47,West,270,1.1,3.6,47,0.00,,---,0.00,VWS V14.01,2013-01-23 02:36:00,
2013-01-22 20:41:00,15.8,-0.9,29.47,West,270,2.7,2.7,47,0.00,,---,0.00,VWS V14.01,2013-01-23 02:41:00,
2013-01-22 20:46:00,16.0,-1.1,29.50,West,270,4.0,4.0,46,0.00,,---,0.00,VWS V14.01,2013-01-23 02:46:00,
2013-01-22 20:51:00,15.8,-0.9,29.50,NNW,338,2.0,2.0,47,0.00,,---,0.00,VWS V14.01,2013-01-23 02:51:00,
2013-01-22 20:56:00,16.0,-0.7,29.50,NNW,338,0.0,0.0,47,0.00,,---,0.00,VWS V14.01,2013-01-23 02:56:00,
2013-01-22 21:02:00,16.2,-0.5,29.50,WSW,248,2.7,2.7,47,0.00,,---,0.00,VWS V14.01,2013-01-23 03:02:00,
2013-01-22 21:07:00,16.0,-0.7,29.50,WSW,248,3.4,3.4,47,0.00,,---,0.00,VWS V14.01,2013-01-23 03:07:00,
2013-01-22 21:12:00,15.8,-0.9,29.50,West,270,3.1,4.7,47,0.00,,---,0.00,VWS V14.01,2013-01-23 03:12:00,
2013-01-22 21:17:00,15.8,-0.9,29.50,WSW,248,3.8,3.8,47,0.00,,---,0.00,VWS V14.01,2013-01-23 03:17:00,
2013-01-22 21:22:00,15.8,-0.9,29.50,NW,315,4.0,4.0,47,0.00,,---,0.00,VWS V14.01,2013-01-23 03:22:00,
2013-01-22 21:27:00,15.6,-1.0,29.50,WSW,248,5.4,5.4,47,0.00,,---,0.00,VWS V14.01,2013-01-23 03:27:00,
2013-01-22 21:32:00,15.6,-1.0,29.50,West,270,2.5,3.6,47,0.00,,---,0.00,VWS V14.01,2013-01-23 03:32:00,
2013-01-22 21:37:00,15.8,-0.9,29.50,West,270,2.7,2.7,47,0.00,,---,0.00,VWS V14.01,2013-01-23 03:37:00,
2013-01-22 21:42:00,15.8,-0.9,29.50,WNW,292,2.7,2.7,47,0.00,,---,0.00,VWS V14.01,2013-01-23 03:42:00,
2013-01-22 21:47:00,15.8,-0.9,29.50,West,270,2.0,2.9,47,0.00,,---,0.00,VWS V14.01,2013-01-23 03:47:00,
2013-01-22 21:52:00,15.6,-1.0,29.50,West,270,1.6,1.6,47,0.00,,---,0.00,VWS V14.01,2013-01-23 03:52:00,
2013-01-22 21:58:00,15.4,-1.2,29.50,West,270,2.2,4.0,47,0.00,,---,0.00,VWS V14.01,2013-01-23 03:58:00,
2013-01-22 22:03:00,15.4,-1.2,29.50,WSW,248,0.0,1.3,47,0.00,,---,0.00,VWS V14.01,2013-01-23 04:03:00,
2013-01-22 22:08:00,15.4,-1.2,29.50,WSW,248,1.3,2.0,47,0.00,,---,0.00,VWS V14.01,2013-01-23 04:08:00,
2013-01-22 22:13:00,15.3,-1.3,29.50,WSW,248,2.5,2.5,47,0.00,,---,0.00,VWS V14.01,2013-01-23 04:13:00,
2013-01-22 22:18:00,15.3,-1.3,29.50,WSW,248,0.0,0.0,47,0.00,,---,0.00,VWS V14.01,2013-01-23 04:18:00,
2013-01-22 22:23:00,15.1,-1.5,29.50,West,270,2.5,3.4,47,0.00,,---,0.00,VWS V14.01,2013-01-23 04:23:00,
2013-01-22 22:28:00,15.1,-1.5,29.50,West,270,2.5,2.9,47,0.00,,---,0.00,VWS V14.01,2013-01-23 04:28:00,
2013-01-22 22:33:00,15.1,-1.5,29.50,West,270,2.0,2.0,47,0.00,,---,0.00,VWS V14.01,2013-01-23 04:33:00,
2013-01-22 22:38:00,15.1,-1.5,29.50,West,270,2.2,2.2,47,0.00,,---,0.00,VWS V14.01,2013-01-23 04:38:00,
2013-01-22 22:43:00,15.3,-1.3,29.50,West,270,0.0,0.0,47,0.00,,---,0.00,VWS V14.01,2013-01-23 04:43:00,
2013-01-22 22:48:00,15.3,-1.3,29.50,West,270,2.7,2.7,47,0.00,,---,0.00,VWS V14.01,2013-01-23 04:48:00,
2013-01-22 22:53:00,15.3,-1.3,29.50,West,270,1.3,1.3,47,0.00,,---,0.00,VWS V14.01,2013-01-23 04:53:00,
2013-01-22 22:58:00,15.3,-1.3,29.50,West,270,1.3,2.7,47,0.00,,---,0.00,VWS V14.01,2013-01-23 04:58:00,
2013-01-22 23:00:00,15.3,-1.3,29.50,West,270,2.0,2.0,47,0.00,,---,0.00,VWS V14.01,2013-01-23 05:00:00,
2013-01-22 23:01:00,15.3,-1.3,29.50,West,270,1.3,2.0,47,0.00,,---,0.00,VWS V14.01,2013-01-23 05:01:00,
2013-01-22 23:02:00,15.3,-1.3,29.50,West,270,1.1,1.3,47,0.00,,---,0.00,VWS V14.01,2013-01-23 05:02:00,
2013-01-22 23:03:00,15.4,-0.7,29.50,West,270,1.1,1.1,48,0.00,,---,0.00,VWS V14.01,2013-01-23 05:03:00,
2013-01-22 23:08:00,15.4,-0.7,29.50,West,270,3.8,3.8,48,0.00,,---,0.00,VWS V14.01,2013-01-23 05:08:00,
2013-01-22 23:13:00,15.4,-0.7,29.50,West,270,1.1,2.7,48,0.00,,---,0.00,VWS V14.01,2013-01-23 05:13:00,
2013-01-22 23:18:00,15.4,-0.7,29.50,WNW,292,0.9,2.7,48,0.00,,---,0.00,VWS V14.01,2013-01-23 05:18:00,
2013-01-22 23:23:00,15.4,-0.7,29.50,NW,315,2.2,2.2,48,0.00,,---,0.00,VWS V14.01,2013-01-23 05:23:00,
2013-01-22 23:28:00,15.6,-0.6,29.50,NW,315,1.6,2.0,48,0.00,,---,0.00,VWS V14.01,2013-01-23 05:28:00,
2013-01-22 23:33:00,15.6,-0.6,29.50,West,270,3.1,3.1,48,0.00,,---,0.00,VWS V14.01,2013-01-23 05:33:00,
2013-01-22 23:38:00,15.6,-0.6,29.50,WNW,292,1.6,2.5,48,0.00,,---,0.00,VWS V14.01,2013-01-23 05:38:00,
2013-01-22 23:43:00,15.4,-0.7,29.50,WNW,292,1.1,1.1,48,0.00,,---,0.00,VWS V14.01,2013-01-23 05:43:00,
2013-01-22 23:48:00,15.6,-0.6,29.50,WNW,292,1.6,1.6,48,0.00,,---,0.00,VWS V14.01,2013-01-23 05:48:00,
2013-01-22 23:53:00,15.4,-0.7,29.50,WNW,292,1.3,2.5,48,0.00,,---,0.00,VWS V14.01,2013-01-23 05:53:00,
2013-01-22 23:58:00,15.4,-0.7,29.50,West,270,2.5,2.5,48,0.00,,---,0.00,VWS V14.01,2013-01-23 05:58:00,